Time;durP1;ratioP1;P1;durP2;ratioP2;P2;SDS_P1;SDS_P2;PMS_P1;PMS_P2;Temp;Humidity;BMP_temperature;BMP_pressure;BME280_temperature;BME280_humidity;BME280_pressure;Samples;Min_cycle;Max_cycle;Signal;HPM_P1;HPM_P2
2023/03/13 00:00:55;;;;;;;22.25;3.67;;;;;;;-145.01;100.00;64805.59;5079276;28;20337;-59
2023/03/13 00:03:21;;;;;;;23.25;3.97;;;;;;;-145.01;100.00;64805.59;5070966;28;20209;-59
2023/03/13 00:05:46;;;;;;;26.42;4.20;;;;;;;-145.01;100.00;64805.59;5063816;28;20134;-59
2023/03/13 00:08:12;;;;;;;18.95;3.63;;;;;;;-145.01;100.00;64805.59;5083695;28;20039;-59
2023/03/13 00:10:38;;;;;;;22.23;4.03;;;;;;;-145.01;100.00;64805.59;5088377;28;20045;-59
2023/03/13 00:13:04;;;;;;;21.95;3.58;;;;;;;-145.01;100.00;64805.59;5079863;28;20052;-59
2023/03/13 00:15:29;;;;;;;22.15;3.85;;;;;;;-145.01;100.00;64805.59;5093503;28;20051;-59
2023/03/13 00:17:54;;;;;;;23.50;4.32;;;;;;;-145.01;100.00;64805.59;5084568;28;20025;-58
2023/03/13 00:20:20;;;;;;;20.23;3.78;;;;;;;-145.01;100.00;64805.59;5080232;28;20028;-58
2023/03/13 00:22:45;;;;;;;20.73;4.30;;;;;;;-145.01;100.00;64805.59;5077445;28;20554;-60
2023/03/13 00:25:11;;;;;;;22.75;4.05;;;;;;;-145.01;100.00;64805.59;5087988;28;20025;-60
2023/03/13 00:27:36;;;;;;;21.23;4.45;;;;;;;-145.01;100.00;64805.59;5078671;28;20512;-60
2023/03/13 00:30:02;;;;;;;22.48;4.38;;;;;;;-145.01;100.00;64805.59;5089476;28;20031;-58
2023/03/13 00:32:27;;;;;;;15.02;3.63;;;;;;;-145.01;100.00;64805.59;5085832;28;20280;-60
2023/03/13 00:34:52;;;;;;;16.67;3.42;;;;;;;-145.01;100.00;64805.59;5057144;28;20401;-60
2023/03/13 00:37:20;;;;;;;19.23;3.33;;;;;;;-145.01;100.00;64805.59;5087148;28;20377;-60
2023/03/13 00:39:45;;;;;;;31.75;4.88;;;;;;;-145.01;100.00;64805.59;5080689;28;20505;-60
2023/03/13 00:42:11;;;;;;;28.80;5.13;;;;;;;-145.01;100.00;64805.59;5094598;28;20028;-60
2023/03/13 00:44:36;;;;;;;19.77;3.20;;;;;;;-145.01;100.00;64805.59;5060493;28;20032;-60
2023/03/13 00:47:04;;;;;;;25.45;3.80;;;;;;;-145.01;100.00;64805.59;5082705;28;20023;-60
2023/03/13 00:49:29;;;;;;;21.63;4.00;;;;;;;-145.01;100.00;64805.59;5062506;28;20478;-59
2023/03/13 00:51:55;;;;;;;22.42;4.13;;;;;;;-145.01;100.00;64805.59;5076559;28;20081;-60
2023/03/13 00:54:20;;;;;;;26.35;3.65;;;;;;;-145.01;100.00;64805.59;5085720;28;20035;-59
2023/03/13 00:56:46;;;;;;;22.17;4.00;;;;;;;-145.01;100.00;64805.59;5080633;28;20024;-59
2023/03/13 00:59:11;;;;;;;23.13;4.07;;;;;;;-145.01;100.00;64805.59;5085159;28;20562;-59
2023/03/13 01:01:37;;;;;;;18.92;3.67;;;;;;;-145.01;100.00;64805.59;5074116;28;20382;-59
2023/03/13 01:04:04;;;;;;;24.27;4.47;;;;;;;-145.01;100.00;64805.59;5085014;28;20196;-59
2023/03/13 01:06:31;;;;;;;27.15;4.15;;;;;;;-145.01;100.00;64805.59;5082135;28;20552;-59
2023/03/13 01:08:56;;;;;;;17.05;3.45;;;;;;;-145.01;100.00;64805.59;5082165;28;20052;-59
2023/03/13 01:11:26;;;;;;;19.75;3.55;;;;;;;-145.01;100.00;64805.59;5097477;28;20436;-60
2023/03/13 01:13:56;;;;;;;19.73;3.80;;;;;;;-145.01;100.00;64805.59;5080300;28;20073;-59
2023/03/13 01:16:22;;;;;;;23.23;3.78;;;;;;;-145.01;100.00;64805.59;5068040;28;20032;-59
2023/03/13 01:18:49;;;;;;;15.30;3.40;;;;;;;-145.01;100.00;64805.59;5065140;28;20569;-60
2023/03/13 01:21:14;;;;;;;14.98;3.35;;;;;;;-145.01;100.00;64805.59;5057007;28;20048;-60
2023/03/13 01:23:40;;;;;;;21.95;3.70;;;;;;;-145.01;100.00;64805.59;5075623;28;20078;-60
2023/03/13 01:26:06;;;;;;;24.25;4.00;;;;;;;-145.01;100.00;64805.59;5053777;28;20039;-60
2023/03/13 01:28:32;;;;;;;28.35;3.78;;;;;;;-145.01;100.00;64805.59;5085439;28;20355;-59
2023/03/13 01:30:58;;;;;;;25.05;3.53;;;;;;;-145.01;100.00;64805.59;5078229;28;20090;-59
2023/03/13 01:33:23;;;;;;;27.40;3.67;;;;;;;-145.01;100.00;64805.59;5069390;28;20529;-59
2023/03/13 01:35:49;;;;;;;21.75;3.63;;;;;;;-145.01;100.00;64805.59;5082243;28;20032;-60
2023/03/13 01:38:14;;;;;;;19.45;3.70;;;;;;;-145.01;100.00;64805.59;5080535;28;20047;-60
2023/03/13 01:40:45;;;;;;;16.45;3.25;;;;;;;-145.01;100.00;64805.59;5085026;28;20028;-60
2023/03/13 01:43:30;;;;;;;18.27;3.13;;;;;;;-145.01;100.00;64805.59;5085141;28;20474;-59
2023/03/13 01:46:18;;;;;;;14.32;3.08;;;;;;;-145.01;100.00;64805.59;5082661;28;20052;-59
2023/03/13 01:49:04;;;;;;;22.50;3.90;;;;;;;-145.01;100.00;64805.59;5064588;28;20028;-60
2023/03/13 01:51:34;;;;;;;17.42;3.30;;;;;;;-145.01;100.00;64805.59;5074749;28;20376;-60
2023/03/13 01:54:06;;;;;;;19.17;3.33;;;;;;;-145.01;100.00;64805.59;5069159;28;20132;-59
2023/03/13 01:56:55;;;;;;;15.40;3.70;;;;;;;-145.01;100.00;64805.59;5071723;28;20021;-59
2023/03/13 01:59:26;;;;;;;20.77;3.33;;;;;;;-145.01;100.00;64805.59;5056779;28;20052;-59
2023/03/13 02:01:52;;;;;;;12.60;3.55;;;;;;;-145.01;100.00;64805.59;5053976;28;20073;-59
2023/03/13 02:04:17;;;;;;;22.10;4.18;;;;;;;-145.01;100.00;64805.59;5067534;28;20036;-59
2023/03/13 02:06:44;;;;;;;16.45;4.25;;;;;;;-145.01;100.00;64805.59;5039019;28;20088;-59
2023/03/13 02:09:15;;;;;;;21.77;3.45;;;;;;;-145.01;100.00;64805.59;5061115;28;20553;-60
2023/03/13 02:11:48;;;;;;;20.63;3.08;;;;;;;-145.01;100.00;64805.59;5052279;28;20474;-59
2023/03/13 02:14:18;;;;;;;21.02;3.63;;;;;;;-145.01;100.00;64805.59;5054348;28;20521;-60
2023/03/13 02:16:46;;;;;;;14.70;3.30;;;;;;;-145.01;100.00;64805.59;5060181;28;20115;-60
2023/03/13 02:19:39;;;;;;;15.35;3.72;;;;;;;-145.01;100.00;64805.59;5046269;28;20089;-60
2023/03/13 02:22:23;;;;;;;22.38;3.40;;;;;;;-145.01;100.00;64805.59;5058179;28;20458;-60
2023/03/13 02:25:08;;;;;;;19.75;3.95;;;;;;;-145.01;100.00;64805.59;5072360;28;20036;-60
2023/03/13 02:27:33;;;;;;;19.60;3.80;;;;;;;-145.01;100.00;64805.59;5084778;28;20081;-60
2023/03/13 02:29:59;;;;;;;14.40;3.75;;;;;;;-145.01;100.00;64805.59;5082982;28;20474;-58
2023/03/13 02:32:25;;;;;;;18.42;3.03;;;;;;;-145.01;100.00;64805.59;5073524;28;20059;-59
2023/03/13 02:34:52;;;;;;;9.70;2.60;;;;;;;-145.01;100.00;64805.59;5079324;28;20079;-61
2023/03/13 02:37:18;;;;;;;19.42;3.45;;;;;;;-145.01;100.00;64805.59;5088467;28;20158;-58
2023/03/13 02:39:46;;;;;;;18.83;2.85;;;;;;;-145.01;100.00;64805.59;5059763;28;20492;-58
2023/03/13 02:42:12;;;;;;;15.43;2.90;;;;;;;-145.01;100.00;64805.59;5063719;28;20047;-60
2023/03/13 02:44:39;;;;;;;19.05;3.13;;;;;;;-145.01;100.00;64805.59;5058977;28;20033;-60
2023/03/13 02:47:04;;;;;;;17.45;2.88;;;;;;;-145.01;100.00;64805.59;5093283;28;20470;-60
2023/03/13 02:49:30;;;;;;;14.77;3.63;;;;;;;-145.01;100.00;64805.59;5083024;28;20317;-60
2023/03/13 02:51:59;;;;;;;11.15;3.28;;;;;;;-145.01;100.00;64805.59;5055157;28;20040;-61
2023/03/13 02:54:30;;;;;;;11.77;2.90;;;;;;;-145.01;100.00;64805.59;5051105;28;20486;-58
2023/03/13 02:56:57;;;;;;;16.02;3.25;;;;;;;-145.01;100.00;64805.59;5086485;28;20107;-58
2023/03/13 02:59:23;;;;;;;11.00;2.95;;;;;;;-145.01;100.00;64805.59;5055220;28;20328;-59
2023/03/13 03:01:51;;;;;;;12.20;2.92;;;;;;;-145.01;100.00;64805.59;5071309;28;20025;-59
2023/03/13 03:04:22;;;;;;;11.38;2.33;;;;;;;-145.01;100.00;64805.59;5084907;28;20021;-59
2023/03/13 03:06:48;;;;;;;7.18;2.28;;;;;;;-145.01;100.00;64805.59;5051974;28;20032;-59
2023/03/13 03:09:13;;;;;;;9.48;2.30;;;;;;;-145.01;100.00;64805.59;5093941;28;20024;-59
2023/03/13 03:11:39;;;;;;;11.80;2.53;;;;;;;-145.01;100.00;64805.59;5062645;28;20382;-59
2023/03/13 03:14:05;;;;;;;10.60;2.25;;;;;;;-145.01;100.00;64805.59;5071412;28;20046;-59
2023/03/13 03:16:30;;;;;;;8.02;2.20;;;;;;;-145.01;100.00;64805.59;5063143;28;20047;-61
2023/03/13 03:18:57;;;;;;;9.75;1.85;;;;;;;-145.01;100.00;64805.59;5077717;28;20474;-59
2023/03/13 03:21:22;;;;;;;9.07;2.10;;;;;;;-145.01;100.00;64805.59;5100003;28;20031;-59
2023/03/13 03:23:51;;;;;;;8.70;2.55;;;;;;;-145.01;100.00;64805.59;5080154;28;20028;-59
2023/03/13 03:26:17;;;;;;;7.80;2.50;;;;;;;-145.01;100.00;64805.59;5082690;28;20025;-59
2023/03/13 03:28:42;;;;;;;9.88;1.98;;;;;;;-145.01;100.00;64805.59;5063161;28;20502;-59
2023/03/13 03:31:09;;;;;;;7.30;2.08;;;;;;;-145.01;100.00;64805.59;5060355;28;20032;-59
2023/03/13 03:33:35;;;;;;;4.60;1.70;;;;;;;-145.01;100.00;64805.59;5086923;28;20027;-59
2023/03/13 03:36:06;;;;;;;5.47;2.08;;;;;;;-145.01;100.00;64805.59;5095519;28;20024;-58
2023/03/13 03:38:31;;;;;;;9.25;1.80;;;;;;;-145.01;100.00;64805.59;5087191;28;20028;-59
2023/03/13 03:40:57;;;;;;;5.70;2.25;;;;;;;-145.01;100.00;64805.59;5082303;28;20035;-59
2023/03/13 03:43:23;;;;;;;6.28;2.22;;;;;;;-145.01;100.00;64805.59;5092501;28;20031;-59
2023/03/13 03:45:48;;;;;;;4.45;1.80;;;;;;;-145.01;100.00;64805.59;5078702;28;20238;-59
2023/03/13 03:48:13;;;;;;;4.05;1.40;;;;;;;-145.01;100.00;64805.59;5084451;28;20028;-59
2023/03/13 03:50:39;;;;;;;6.40;1.60;;;;;;;-145.01;100.00;64805.59;5087155;28;20293;-59
2023/03/13 03:53:04;;;;;;;6.93;1.70;;;;;;;-145.01;100.00;64805.59;5084187;28;20039;-59
2023/03/13 03:55:30;;;;;;;3.78;1.90;;;;;;;-145.01;100.00;64805.59;5078034;28;20027;-59
2023/03/13 03:57:55;;;;;;;4.72;1.55;;;;;;;-145.01;100.00;64805.59;5084155;28;20349;-59
2023/03/13 04:00:21;;;;;;;6.75;1.77;;;;;;;-145.01;100.00;64805.59;5086544;28;20547;-59
2023/03/13 04:02:46;;;;;;;2.97;1.33;;;;;;;-145.01;100.00;64805.59;5092421;28;20092;-59
2023/03/13 04:05:12;;;;;;;2.85;1.50;;;;;;;-145.01;100.00;64805.59;5073173;28;20405;-59
2023/03/13 04:07:37;;;;;;;4.05;1.50;;;;;;;-145.01;100.00;64805.59;5081069;28;20462;-59
2023/03/13 04:10:04;;;;;;;2.58;1.45;;;;;;;-145.01;100.00;64805.59;5076867;28;20056;-59
2023/03/13 04:12:29;;;;;;;2.70;1.50;;;;;;;-145.01;100.00;64805.59;5080193;28;20421;-58
2023/03/13 04:14:54;;;;;;;2.78;1.77;;;;;;;-145.01;100.00;64805.59;5080354;28;20044;-58
2023/03/13 04:17:20;;;;;;;6.82;3.70;;;;;;;-145.01;100.00;64805.59;5091481;28;20036;-58
2023/03/13 04:19:45;;;;;;;6.40;2.83;;;;;;;-145.01;100.00;64805.59;5080223;28;20593;-59
2023/03/13 04:22:11;;;;;;;5.22;1.88;;;;;;;-145.01;100.00;64805.59;5087257;28;20042;-58
2023/03/13 04:24:36;;;;;;;7.28;1.70;;;;;;;-145.01;100.00;64805.59;5080790;28;20509;-60
2023/03/13 04:27:02;;;;;;;4.70;1.73;;;;;;;-145.01;100.00;64805.59;5081034;28;20024;-59
2023/03/13 04:29:28;;;;;;;1.60;1.40;;;;;;;-145.01;100.00;64805.59;5089201;28;20073;-59
2023/03/13 04:31:54;;;;;;;9.65;2.40;;;;;;;-145.01;100.00;64805.59;5083667;28;20282;-59
2023/03/13 04:34:19;;;;;;;4.10;2.30;;;;;;;-145.01;100.00;64805.59;5080057;28;20106;-59
2023/03/13 04:36:44;;;;;;;6.40;3.50;;;;;;;-145.01;100.00;64805.59;5092777;28;20393;-59
2023/03/13 04:39:10;;;;;;;5.10;2.38;;;;;;;-145.01;100.00;64805.59;5085175;28;20391;-58
2023/03/13 04:41:35;;;;;;;6.38;3.58;;;;;;;-145.01;100.00;64805.59;5062311;28;20028;-61
2023/03/13 04:44:01;;;;;;;4.47;2.30;;;;;;;-145.01;100.00;64805.59;5059570;28;20450;-59
2023/03/13 04:46:26;;;;;;;2.85;1.50;;;;;;;-145.01;100.00;64805.59;5081683;28;20020;-59
2023/03/13 04:48:52;;;;;;;7.00;2.63;;;;;;;-145.01;100.00;64805.59;5085228;28;20033;-59
2023/03/13 04:51:17;;;;;;;3.03;1.90;;;;;;;-145.01;100.00;64805.59;5095592;28;20396;-58
2023/03/13 04:53:43;;;;;;;4.57;2.30;;;;;;;-145.01;100.00;64805.59;5059138;28;20041;-60
2023/03/13 04:56:08;;;;;;;6.03;2.22;;;;;;;-145.01;100.00;64805.59;5077053;28;20076;-60
2023/03/13 04:58:33;;;;;;;3.25;2.08;;;;;;;-145.01;100.00;64805.59;5065688;28;20027;-59
2023/03/13 05:00:59;;;;;;;3.58;1.90;;;;;;;-145.01;100.00;64805.59;5079940;28;20039;-59
2023/03/13 05:03:24;;;;;;;4.28;2.72;;;;;;;-145.01;100.00;64805.59;5085744;28;20028;-60
2023/03/13 05:05:50;;;;;;;5.32;2.00;;;;;;;-145.01;100.00;64805.59;5081347;28;20372;-60
2023/03/13 05:08:15;;;;;;;2.97;1.85;;;;;;;-145.01;100.00;64805.59;5075002;28;20088;-60
2023/03/13 05:10:41;;;;;;;4.25;1.90;;;;;;;-145.01;100.00;64805.59;5089776;28;20016;-60
2023/03/13 05:13:07;;;;;;;5.85;1.95;;;;;;;-145.01;100.00;64805.59;5082531;28;20402;-59
2023/03/13 05:15:32;;;;;;;2.33;1.60;;;;;;;-145.01;100.00;64805.59;5084116;28;20118;-60
2023/03/13 05:17:58;;;;;;;3.03;1.90;;;;;;;-145.01;100.00;64805.59;5084608;28;20015;-60
2023/03/13 05:20:23;;;;;;;4.35;1.88;;;;;;;-145.01;100.00;64805.59;5075792;28;20023;-60
2023/03/13 05:22:49;;;;;;;5.15;2.00;;;;;;;-145.01;100.00;64805.59;5084274;28;20323;-59
2023/03/13 05:25:14;;;;;;;5.15;2.13;;;;;;;-145.01;100.00;64805.59;5075497;28;20036;-60
2023/03/13 05:27:40;;;;;;;2.40;1.70;;;;;;;-145.01;100.00;64805.59;5079802;28;20016;-60
2023/03/13 05:30:06;;;;;;;3.50;1.88;;;;;;;-145.01;100.00;64805.59;5085883;28;20020;-60
2023/03/13 05:32:31;;;;;;;3.00;1.80;;;;;;;-145.01;100.00;64805.59;5073292;28;20032;-61
2023/03/13 05:34:57;;;;;;;4.57;2.08;;;;;;;-145.01;100.00;64805.59;5083302;28;20102;-60
2023/03/13 05:37:22;;;;;;;3.85;2.10;;;;;;;-145.01;100.00;64805.59;5088522;28;20174;-61
2023/03/13 05:39:47;;;;;;;3.53;2.00;;;;;;;-145.01;100.00;64805.59;5069590;28;20036;-59
2023/03/13 05:42:13;;;;;;;3.40;2.00;;;;;;;-145.01;100.00;64805.59;5085065;28;20035;-60
2023/03/13 05:44:39;;;;;;;3.88;2.15;;;;;;;-145.01;100.00;64805.59;5076534;28;20024;-59
2023/03/13 05:47:04;;;;;;;3.63;2.10;;;;;;;-145.01;100.00;64805.59;5085356;28;20111;-59
2023/03/13 05:49:30;;;;;;;4.88;2.30;;;;;;;-145.01;100.00;64805.59;5081560;28;20461;-60
2023/03/13 05:51:55;;;;;;;3.35;2.05;;;;;;;-145.01;100.00;64805.59;5080616;28;20032;-60
2023/03/13 05:54:20;;;;;;;2.88;1.90;;;;;;;-145.01;100.00;64805.59;5083203;28;20028;-60
2023/03/13 05:56:49;;;;;;;7.90;2.28;;;;;;;-145.01;100.00;64805.59;5083769;28;20085;-60
2023/03/13 05:59:14;;;;;;;4.22;2.22;;;;;;;-145.01;100.00;64805.59;5085134;28;20031;-60
2023/03/13 06:01:40;;;;;;;5.18;2.08;;;;;;;-145.01;100.00;64805.59;5078760;28;20027;-60
2023/03/13 06:04:05;;;;;;;3.53;2.17;;;;;;;-145.01;100.00;64805.59;5073401;28;20066;-60
2023/03/13 06:06:31;;;;;;;4.60;2.20;;;;;;;-145.01;100.00;64805.59;5087470;28;20032;-60
2023/03/13 06:08:56;;;;;;;6.00;2.40;;;;;;;-145.01;100.00;64805.59;5074367;28;20016;-60
2023/03/13 06:11:22;;;;;;;4.43;2.25;;;;;;;-145.01;100.00;64805.59;5094130;28;20393;-60
2023/03/13 06:13:47;;;;;;;4.60;2.17;;;;;;;-145.01;100.00;64805.59;5081902;28;20541;-60
2023/03/13 06:16:13;;;;;;;3.78;2.03;;;;;;;-145.01;100.00;64805.59;5064755;28;20179;-59
2023/03/13 06:18:38;;;;;;;4.60;2.20;;;;;;;-145.01;100.00;64805.59;5078152;28;20024;-60
2023/03/13 06:21:04;;;;;;;4.13;2.13;;;;;;;-145.01;100.00;64805.59;5086996;28;20028;-60
2023/03/13 06:23:29;;;;;;;4.18;2.40;;;;;;;-145.01;100.00;64805.59;5082604;28;20030;-60
2023/03/13 06:25:55;;;;;;;5.97;2.20;;;;;;;-145.01;100.00;64805.59;5073365;28;20028;-60
2023/03/13 06:28:21;;;;;;;5.75;2.50;;;;;;;-145.01;100.00;64805.59;5088304;28;20032;-60
2023/03/13 06:30:46;;;;;;;5.70;2.70;;;;;;;-145.01;100.00;64805.59;5040844;28;20087;-60
2023/03/13 06:33:15;;;;;;;5.65;2.70;;;;;;;-145.01;100.00;64805.59;5061762;28;20477;-60
2023/03/13 06:35:41;;;;;;;5.00;2.35;;;;;;;-145.01;100.00;64805.59;5082753;28;20039;-60
2023/03/13 06:38:06;;;;;;;8.27;2.83;;;;;;;-145.01;100.00;64805.59;5080429;28;20040;-60
2023/03/13 06:40:32;;;;;;;4.95;2.42;;;;;;;-145.01;100.00;64805.59;5085024;28;20230;-60
2023/03/13 06:42:57;;;;;;;7.10;2.58;;;;;;;-145.01;100.00;64805.59;5082688;28;20077;-60
2023/03/13 06:45:23;;;;;;;5.40;2.65;;;;;;;-145.01;100.00;64805.59;5078720;28;20024;-60
2023/03/13 06:47:50;;;;;;;7.40;2.60;;;;;;;-145.01;100.00;64805.59;5075818;28;20052;-60
2023/03/13 06:50:16;;;;;;;8.30;3.10;;;;;;;-145.01;100.00;64805.59;5087732;28;20032;-60
2023/03/13 06:52:41;;;;;;;6.82;3.10;;;;;;;-145.01;100.00;64805.59;5070915;28;20082;-60
2023/03/13 06:55:07;;;;;;;5.18;3.20;;;;;;;-145.01;100.00;64805.59;5084483;28;20097;-60
2023/03/13 06:57:33;;;;;;;5.28;2.70;;;;;;;-145.01;100.00;64805.59;5081832;28;20261;-60
2023/03/13 06:59:58;;;;;;;9.50;3.53;;;;;;;-145.01;100.00;64805.59;5072519;28;20075;-60
2023/03/13 07:02:23;;;;;;;6.70;3.50;;;;;;;-145.01;100.00;64805.59;5061559;28;20099;-60
2023/03/13 07:04:49;;;;;;;8.63;3.53;;;;;;;-145.01;100.00;64805.59;5083051;28;20522;-60
2023/03/13 07:07:14;;;;;;;8.88;3.63;;;;;;;-145.01;100.00;64805.59;5082533;28;20044;-60
2023/03/13 07:09:40;;;;;;;8.57;3.75;;;;;;;-145.01;100.00;64805.59;5090458;28;20382;-60
2023/03/13 07:12:06;;;;;;;8.20;4.15;;;;;;;-145.01;100.00;64805.59;5089743;28;20052;-60
2023/03/13 07:14:31;;;;;;;8.32;3.67;;;;;;;-145.01;100.00;64805.59;5074493;28;20071;-60
2023/03/13 07:16:57;;;;;;;10.95;4.50;;;;;;;-145.01;100.00;64805.59;5081929;28;20032;-60
2023/03/13 07:19:23;;;;;;;11.13;4.57;;;;;;;-145.01;100.00;64805.59;5070644;28;20138;-60
2023/03/13 07:21:48;;;;;;;10.32;4.32;;;;;;;-145.01;100.00;64805.59;5074271;28;20020;-60
2023/03/13 07:24:14;;;;;;;10.88;4.43;;;;;;;-145.01;100.00;64805.59;5088687;28;20455;-60
2023/03/13 07:26:39;;;;;;;12.88;4.63;;;;;;;-145.01;100.00;64805.59;5082237;28;20566;-60
2023/03/13 07:29:05;;;;;;;10.15;4.63;;;;;;;-145.01;100.00;64805.59;5071239;28;20474;-60
2023/03/13 07:31:32;;;;;;;11.30;5.82;;;;;;;-145.01;100.00;64805.59;5077935;28;20402;-60
2023/03/13 07:34:01;;;;;;;11.57;4.22;;;;;;;-145.01;100.00;64805.59;5093928;28;20130;-60
2023/03/13 07:36:29;;;;;;;9.63;4.68;;;;;;;-145.01;100.00;64805.59;5046539;28;20039;-61
2023/03/13 07:38:55;;;;;;;12.07;4.60;;;;;;;-145.01;100.00;64805.59;5056126;28;20387;-60
2023/03/13 07:41:20;;;;;;;11.45;4.50;;;;;;;-145.01;100.00;64805.59;5084641;28;20028;-60
2023/03/13 07:43:46;;;;;;;9.13;4.85;;;;;;;-145.01;100.00;64805.59;5073015;28;20177;-60
2023/03/13 07:46:17;;;;;;;8.85;4.85;;;;;;;-145.01;100.00;64805.59;5078011;28;20188;-59
2023/03/13 07:48:42;;;;;;;12.52;4.63;;;;;;;-145.01;100.00;64805.59;5052786;28;20028;-60
2023/03/13 07:51:16;;;;;;;11.70;4.93;;;;;;;-145.01;100.00;64805.59;5060600;28;20335;-60
2023/03/13 07:53:46;;;;;;;8.57;4.15;;;;;;;-145.01;100.00;64805.59;5063613;28;20031;-60
2023/03/13 07:56:13;;;;;;;10.00;4.53;;;;;;;-145.01;100.00;64805.59;5065410;28;20482;-60
2023/03/13 07:58:41;;;;;;;11.90;4.53;;;;;;;-145.01;100.00;64805.59;5079813;28;20028;-60
2023/03/13 08:01:14;;;;;;;9.77;4.40;;;;;;;-145.01;100.00;64805.59;5058864;28;20032;-60
2023/03/13 08:03:50;;;;;;;9.15;3.65;;;;;;;-145.01;100.00;64805.59;5058991;28;20027;-60
2023/03/13 08:06:22;;;;;;;7.53;3.60;;;;;;;-145.01;100.00;64805.59;5064605;28;20086;-60
2023/03/13 08:08:47;;;;;;;8.85;5.18;;;;;;;-145.01;100.00;64805.59;5075063;28;20051;-60
2023/03/13 08:11:14;;;;;;;8.68;3.95;;;;;;;-145.01;100.00;64805.59;5081356;28;20028;-60
2023/03/13 08:13:40;;;;;;;17.80;6.60;;;;;;;-145.01;100.00;64805.59;5073655;28;20036;-60
2023/03/13 08:16:16;;;;;;;12.52;4.43;;;;;;;-145.01;100.00;64805.59;5064669;28;20359;-60
2023/03/13 08:18:44;;;;;;;8.35;4.05;;;;;;;-145.01;100.00;64805.59;5077228;28;20024;-60
2023/03/13 08:21:11;;;;;;;11.52;4.30;;;;;;;-145.01;100.00;64805.59;5082131;28;20093;-60
2023/03/13 08:23:36;;;;;;;11.23;4.32;;;;;;;-145.01;100.00;64805.59;5048796;28;20495;-60
2023/03/13 08:26:04;;;;;;;14.65;4.80;;;;;;;-145.01;100.00;64805.59;5079122;28;20071;-60
2023/03/13 08:28:29;;;;;;;14.77;4.35;;;;;;;-145.01;100.00;64805.59;5078657;28;20029;-60
2023/03/13 08:31:09;;;;;;;11.07;4.85;;;;;;;-145.01;100.00;64805.59;5076138;28;20035;-60
2023/03/13 08:33:34;;;;;;;6.82;3.60;;;;;;;-145.01;100.00;64805.59;5058072;28;20071;-60
2023/03/13 08:36:07;;;;;;;11.30;5.85;;;;;;;-145.01;100.00;64805.59;5076552;28;20081;-60
2023/03/13 08:38:33;;;;;;;12.63;4.35;;;;;;;-145.01;100.00;64805.59;5075902;28;20034;-60
2023/03/13 08:40:59;;;;;;;10.77;5.60;;;;;;;-145.01;100.00;64805.59;5075453;28;20024;-60
2023/03/13 08:43:24;;;;;;;13.45;6.53;;;;;;;-145.01;100.00;64805.59;5077328;28;20032;-59
2023/03/13 08:45:54;;;;;;;11.98;4.38;;;;;;;-145.01;100.00;64805.59;5072103;28;20020;-59
2023/03/13 08:48:20;;;;;;;;;;;;;;;-145.01;100.00;64805.59;5073213;28;20024;-59
2023/03/13 08:50:45;;;;;;;14.32;6.70;;;;;;;-145.01;100.00;64805.59;5073313;28;19916;-60
2023/03/13 08:53:11;;;;;;;9.30;4.63;;;;;;;-145.01;100.00;64805.59;5075677;28;20035;-60
2023/03/13 08:55:36;;;;;;;11.27;4.40;;;;;;;-145.01;100.00;64805.59;5078079;28;20414;-60
2023/03/13 08:58:02;;;;;;;8.30;4.43;;;;;;;-145.01;100.00;64805.59;5073093;28;20032;-60
2023/03/13 09:00:27;;;;;;;15.38;5.75;;;;;;;-145.01;100.00;64805.59;5074622;28;20047;-60
2023/03/13 09:02:52;;;;;;;12.02;6.05;;;;;;;-145.01;100.00;64805.59;5077470;28;20031;-64
2023/03/13 09:05:18;;;;;;;13.73;6.18;;;;;;;-145.01;100.00;64805.59;5079858;28;20071;-59
2023/03/13 09:07:43;;;;;;;10.20;4.50;;;;;;;-145.01;100.00;64805.59;5073174;28;20418;-59
2023/03/13 09:10:09;;;;;;;10.60;5.03;;;;;;;-145.01;100.00;64805.59;5074805;28;20795;-60
2023/03/13 09:12:35;;;;;;;8.98;4.38;;;;;;;-145.01;100.00;64805.59;5069928;28;20504;-60
2023/03/13 09:15:00;;;;;;;11.98;4.40;;;;;;;-145.01;100.00;64805.59;5071900;28;20447;-59
2023/03/13 09:17:25;;;;;;;11.77;4.63;;;;;;;-145.01;100.00;64805.59;5080065;28;20031;-59
2023/03/13 09:19:51;;;;;;;12.75;4.50;;;;;;;-145.01;100.00;64805.59;5079805;28;20082;-60
2023/03/13 09:22:16;;;;;;;10.88;4.80;;;;;;;-145.01;100.00;64805.59;5082788;28;20024;-59
2023/03/13 09:24:43;;;;;;;11.73;4.45;;;;;;;-145.01;100.00;64805.59;5072743;28;20039;-60
2023/03/13 09:27:09;;;;;;;9.88;4.22;;;;;;;-145.01;100.00;64805.59;5088273;28;20684;-60
2023/03/13 09:29:38;;;;;;;13.32;4.40;;;;;;;-145.01;100.00;64805.59;5078133;28;20035;-59
2023/03/13 09:32:04;;;;;;;8.95;4.90;;;;;;;-145.01;100.00;64805.59;5075804;28;20024;-60
2023/03/13 09:34:30;;;;;;;10.68;5.68;;;;;;;-145.01;100.00;64805.59;5053898;28;20067;-60
2023/03/13 09:36:56;;;;;;;16.17;5.05;;;;;;;-145.01;100.00;64805.59;5078710;28;20093;-60
2023/03/13 09:39:21;;;;;;;17.38;6.07;;;;;;;-145.01;100.00;64805.59;5082574;28;20420;-59
2023/03/13 09:42:06;;;;;;;8.85;4.60;;;;;;;-145.01;100.00;64805.59;5080325;28;20722;-59
2023/03/13 09:44:34;;;;;;;8.05;4.07;;;;;;;-145.01;100.00;64805.59;5062475;28;20096;-59
2023/03/13 09:47:22;;;;;;;12.57;4.93;;;;;;;-145.01;100.00;64805.59;5071676;28;20394;-60
2023/03/13 09:49:50;;;;;;;10.20;4.78;;;;;;;-145.01;100.00;64805.59;5065173;28;20032;-59
2023/03/13 09:52:25;;;;;;;9.80;4.90;;;;;;;-145.01;100.00;64805.59;5077436;28;20033;-59
2023/03/13 09:55:03;;;;;;;9.48;4.90;;;;;;;-145.01;100.00;64805.59;5079717;28;20028;-60
2023/03/13 09:57:35;;;;;;;12.82;5.53;;;;;;;-145.01;100.00;64805.59;5058747;28;20025;-60
2023/03/13 10:00:11;;;;;;;10.38;4.95;;;;;;;-145.01;100.00;64805.59;5059411;28;20154;-60
2023/03/13 10:02:37;;;;;;;14.82;4.72;;;;;;;-145.01;100.00;64805.59;5067437;28;20110;-59
2023/03/13 10:05:15;;;;;;;11.32;5.25;;;;;;;-145.01;100.00;64805.59;5063550;28;20035;-59
2023/03/13 10:07:40;;;;;;;11.07;4.93;;;;;;;-145.01;100.00;64805.59;5075137;28;20543;-60
2023/03/13 10:10:16;;;;;;;8.75;4.90;;;;;;;-145.01;100.00;64805.59;5058321;28;20028;-59
2023/03/13 10:12:46;;;;;;;24.23;14.48;;;;;;;-145.01;100.00;64805.59;5058762;28;20093;-59
2023/03/13 10:15:31;;;;;;;11.68;5.30;;;;;;;-145.01;100.00;64805.59;5061130;28;20197;-59
2023/03/13 10:17:57;;;;;;;11.02;6.30;;;;;;;-145.01;100.00;64805.59;5078568;28;20322;-60
2023/03/13 10:20:24;;;;;;;12.50;5.82;;;;;;;-145.01;100.00;64805.59;5053366;28;20107;-60
2023/03/13 10:22:54;;;;;;;9.80;5.00;;;;;;;-145.01;100.00;64805.59;5078507;28;20051;-60
2023/03/13 10:25:26;;;;;;;10.07;5.05;;;;;;;-145.01;100.00;64805.59;5056198;28;20374;-60
2023/03/13 10:27:52;;;;;;;14.40;5.20;;;;;;;-145.01;100.00;64805.59;5069741;28;20082;-60
2023/03/13 10:30:24;;;;;;;9.00;5.07;;;;;;;-145.01;100.00;64805.59;5085194;28;20028;-60
2023/03/13 10:32:49;;;;;;;9.63;5.43;;;;;;;-145.01;100.00;64805.59;5075623;28;20060;-60
2023/03/13 10:35:29;;;;;;;14.45;6.38;;;;;;;-145.01;100.00;64805.59;5075217;28;20029;-60
2023/03/13 10:38:09;;;;;;;13.93;7.32;;;;;;;-145.01;100.00;64805.59;5081375;28;20044;-60
2023/03/13 10:40:35;;;;;;;9.70;4.60;;;;;;;-145.01;100.00;64805.59;5051933;28;20028;-59
2023/03/13 10:43:17;;;;;;;21.92;15.05;;;;;;;-145.01;100.00;64805.59;5057491;28;20348;-60
2023/03/13 10:45:43;;;;;;;15.48;6.90;;;;;;;-145.01;100.00;64805.59;5071223;28;20035;-60
2023/03/13 10:48:13;;;;;;;15.55;5.43;;;;;;;-145.01;100.00;64805.59;5057048;28;20039;-60
2023/03/13 10:50:41;;;;;;;13.32;5.30;;;;;;;-145.01;100.00;64805.59;5054978;28;20032;-60
2023/03/13 10:53:23;;;;;;;16.05;8.07;;;;;;;-145.01;100.00;64805.59;5074162;28;20036;-60
2023/03/13 10:55:49;;;;;;;18.73;6.28;;;;;;;-145.01;100.00;64805.59;5075033;28;20032;-59
2023/03/13 10:58:29;;;;;;;10.95;5.95;;;;;;;-145.01;100.00;64805.59;5070265;28;20032;-59
2023/03/13 11:01:09;;;;;;;9.68;5.00;;;;;;;-145.01;100.00;64805.59;5061077;28;20042;-58
2023/03/13 11:03:34;;;;;;;13.70;5.80;;;;;;;-145.01;100.00;64805.59;5045386;28;20101;-59
2023/03/13 11:06:01;;;;;;;23.02;11.68;;;;;;;-145.01;100.00;64805.59;5080905;28;20439;-59